Home > Products > Valid Products > MTR

000
SAUS42 KCHS 141857
MTRNBC
METAR KNBC 141856Z AUTO 09007KT 10SM SCT032 06/M06 A3041 RMK AO2
SLP297 T00561056





000
SAUS42 KCHS 141757
MTRNBC
METAR KNBC 141756Z AUTO 08010KT 10SM CLR 06/M06 A3043 RMK AO2 SLP305
T00561056 10061 21017 58014





000
SAUS42 KCHS 141757
MTRNBC
METAR KNBC 141756Z AUTO 08010KT 10SM CLR 06/M06 A3043 RMK AO2 SLP305
T00561056 10061 21017 58014





000
SAUS42 KCHS 141658
MTRNBC
METAR KNBC 141656Z AUTO 09009KT 10SM CLR 05/M08 A3047 RMK AO2 SLP317
T00501078





000
SAUS42 KCHS 141658
MTRNBC
METAR KNBC 141656Z AUTO 09009KT 10SM CLR 05/M08 A3047 RMK AO2 SLP317
T00501078





000
SAUS42 KCHS 141557
MTRNBC
METAR KNBC 141556Z AUTO 07010G17KT 10SM CLR 04/M09 A3048 RMK AO2
SLP321 T00391089





000
SAUS42 KCHS 141457
MTRNBC
METAR KNBC 141456Z AUTO 07011G18KT 10SM CLR 02/M11 A3047 RMK AO2
SLP319 T00221106 53009





000
SAUS42 KCHS 141357
MTRNBC
METAR KNBC 141356Z AUTO 06010KT 10SM CLR 01/M13 A3046 RMK AO2 SLP313
T00061133





000
SAUS42 KCHS 141257
MTRNBC
METAR KNBC 141256Z AUTO 05012KT 10SM CLR M01/M13 A3045 RMK AO2
SLP311 T10061128





000
SAUS42 KCHS 141257
MTRNBC
METAR KNBC 141256Z AUTO 05012KT 10SM CLR M01/M13 A3045 RMK AO2
SLP311 T10061128





000
SAUS42 KCHS 141157
MTRNBC
METAR KNBC 141156Z AUTO 04011KT 10SM CLR M01/M12 A3045 RMK AO2
SLP310 T10111122 10033 21011 53019





000
SAUS42 KCHS 141157
MTRNBC
METAR KNBC 141156Z AUTO 04011KT 10SM CLR M01/M12 A3045 RMK AO2
SLP310 T10111122 10033 21011 53019





000
SAUS42 KCHS 141057
MTRNBC
METAR KNBC 141056Z AUTO 03012KT 10SM CLR M01/M12 A3042 RMK AO2
SLP302 T10111117





000
SAUS42 KCHS 141057
MTRNBC
METAR KNBC 141056Z AUTO 03012KT 10SM CLR M01/M12 A3042 RMK AO2
SLP302 T10111117





000
SAUS42 KCHS 140957
MTRNBC
METAR KNBC 140956Z AUTO 03012KT 10SM CLR M01/M11 A3039 RMK AO2
SLP292 T10061111





000
SAUS42 KCHS 140857
MTRNBC
METAR KNBC 140856Z AUTO 04011KT 10SM CLR 00/M09 A3039 RMK AO2 SLP291
T00001094 53012





000
SAUS42 KCHS 140757
MTRNBC
METAR KNBC 140756Z AUTO 03010KT 10SM CLR 01/M08 A3036 RMK AO2 SLP282
T00111083





000
SAUS42 KCHS 140657
MTRNBC
METAR KNBC 140656Z AUTO 05012G16KT 10SM CLR 03/M09 A3036 RMK AO2
SLP282 T00281089





000
SAUS42 KCHS 140557
MTRNBC
METAR KNBC 140556Z AUTO 05011KT 10SM CLR 03/M06 A3035 RMK AO2 SLP279
T00331061 10067 20011 58004





000
SAUS42 KCHS 140458
MTRNBC
METAR KNBC 140456Z AUTO 04007KT 10SM CLR 02/M06 A3036 RMK AO2 SLP281
T00171061 401170011





000
SAUS42 KCHS 140357
MTRNBC
METAR KNBC 140356Z AUTO 02006KT 10SM CLR 02/M07 A3036 RMK AO2 SLP282
T00221072





000
SAUS42 KCHS 140258
MTRNBC
METAR KNBC 140256Z AUTO 05005KT 10SM CLR 03/M07 A3037 RMK AO2 SLP283
T00331067 51018





000
SAUS42 KCHS 140258
MTRNBC
METAR KNBC 140256Z AUTO 05005KT 10SM CLR 03/M07 A3037 RMK AO2 SLP283
T00331067 51018





000
SAUS42 KCHS 140157
MTRNBC
METAR KNBC 140156Z AUTO 02003KT 10SM CLR 03/M01 A3036 RMK AO2 SLP280
T00281011





000
SAUS42 KCHS 140157
MTRNBC
METAR KNBC 140156Z AUTO 02003KT 10SM CLR 03/M01 A3036 RMK AO2 SLP280
T00281011





000
SAUS42 KCHS 140057
MTRNBC
METAR KNBC 140056Z AUTO 00000KT 10SM CLR 04/M01 A3033 RMK AO2 SLP272
T00391006





000
SAUS42 KCHS 140057
MTRNBC
METAR KNBC 140056Z AUTO 00000KT 10SM CLR 04/M01 A3033 RMK AO2 SLP272
T00391006





000
SAUS42 KCHS 132358
MTRNBC
METAR KNBC 132356Z AUTO 00000KT 10SM CLR 06/M02 A3031 RMK AO2 SLP265
T00611022 10117 20056 53021





000
SAUS42 KCHS 132358
MTRNBC
METAR KNBC 132356Z AUTO 00000KT 10SM CLR 06/M02 A3031 RMK AO2 SLP265
T00611022 10117 20056 53021





000
SAUS42 KCHS 132257
MTRNBC
METAR KNBC 132256Z AUTO 33005KT 10SM CLR 09/M05 A3029 RMK AO2 SLP256
T00941050





000
SAUS42 KCHS 132257
MTRNBC
METAR KNBC 132256Z AUTO 33005KT 10SM CLR 09/M05 A3029 RMK AO2 SLP256
T00941050





000
SAUS42 KCHS 132157
MTRNBC
METAR KNBC 132156Z AUTO 33009KT 10SM CLR 11/M06 A3027 RMK AO2 SLP250
T01061056





000
SAUS42 KCHS 132057
MTRNBC
METAR KNBC 132056Z AUTO 30009KT 10SM CLR 12/M05 A3025 RMK AO2 SLP244
T01171050 55008





000
SAUS42 KCHS 131957
MTRNBC
METAR KNBC 131956Z AUTO 01008KT 10SM CLR 11/M04 A3025 RMK AO2 SLP244
T01111044





000
SAUS42 KCHS 131857
MTRNBC
METAR KNBC 131856Z AUTO 33007KT 10SM CLR 11/M04 A3026 RMK AO2 SLP246
T01111039





000
SAUS42 KCHS 131857
MTRNBC
METAR KNBC 131856Z AUTO 33007KT 10SM CLR 11/M04 A3026 RMK AO2 SLP246
T01111039





000
SAUS42 KCHS 131757
MTRNBC
METAR KNBC 131756Z AUTO 31009KT 10SM CLR 10/M03 A3028 RMK AO2 SLP252
T01001028 10106 20044 58006





000
SAUS42 KCHS 131757
MTRNBC
METAR KNBC 131756Z AUTO 31009KT 10SM CLR 10/M03 A3028 RMK AO2 SLP252
T01001028 10106 20044 58006





000
SAUS42 KCHS 131657
MTRNBC
METAR KNBC 131656Z AUTO 36007KT 10SM CLR 09/M03 A3029 RMK AO2 SLP256
T00891028





000
SAUS42 KCHS 131657
MTRNBC
METAR KNBC 131656Z AUTO 36007KT 10SM CLR 09/M03 A3029 RMK AO2 SLP256
T00891028





000
SAUS42 KCHS 131558
MTRNBC
METAR KNBC 131556Z AUTO 36009KT 10SM CLR 09/M02 A3030 RMK AO2 SLP259
T00891022





000
SAUS42 KCHS 131457
MTRNBC
METAR KNBC 131456Z AUTO 36014KT 10SM CLR 07/M02 A3029 RMK AO2 SLP259
T00721022 51025





000
SAUS42 KCHS 131357
MTRNBC
METAR KNBC 131356Z AUTO 36010KT 10SM CLR 07/M01 A3028 RMK AO2 SLP254
T00671006





000
SAUS42 KCHS 131357
MTRNBC
METAR KNBC 131356Z AUTO 36010KT 10SM CLR 07/M01 A3028 RMK AO2 SLP254
T00671006





000
SAUS42 KCHS 131257
MTRNBC
METAR KNBC 131256Z AUTO 34005KT 10SM CLR 05/M01 A3026 RMK AO2 SLP246
T00501011





000
SAUS42 KCHS 131257
MTRNBC
METAR KNBC 131256Z AUTO 34005KT 10SM CLR 05/M01 A3026 RMK AO2 SLP246
T00501011





000
SAUS42 KCHS 131157
MTRNBC
METAR KNBC 131156Z AUTO 30007KT 10SM CLR 04/M01 A3022 RMK AO2 SLP233
T00441011 10083 20044 53032





000
SAUS42 KCHS 131157
MTRNBC
METAR KNBC 131156Z AUTO 30007KT 10SM CLR 04/M01 A3022 RMK AO2 SLP233
T00441011 10083 20044 53032





000
SAUS42 KCHS 131057
MTRNBC
METAR KNBC 131056Z AUTO 31008KT 10SM CLR 05/M01 A3018 RMK AO2 SLP218
T00501006





000
SAUS42 KCHS 130957
MTRNBC
METAR KNBC 130956Z AUTO 31007KT 10SM CLR 06/00 A3015 RMK AO2 SLP210
T00610000





000
SAUS42 KCHS 130857
MTRNBC
METAR KNBC 130856Z AUTO 31009KT 10SM CLR 07/01 A3012 RMK AO2 SLP201
T00670006 51014





000
SAUS42 KCHS 130757
MTRNBC
METAR KNBC 130756Z AUTO 31007KT 10SM CLR 07/02 A3011 RMK AO2 SLP196
T00720022





000
SAUS42 KCHS 130657
MTRNBC
METAR KNBC 130656Z AUTO 34008KT 10SM CLR 08/03 A3011 RMK AO2 SLP195
T00780033





000
SAUS42 KCHS 130657
MTRNBC
METAR KNBC 130656Z AUTO 34008KT 10SM CLR 08/03 A3011 RMK AO2 SLP195
T00780033





000
SAUS42 KCHS 130610
MTRNBC
SPECI KNBC 130609Z AUTO 32007KT 3SM BR CLR 07/06 A3010 RMK AO2
T00670056





000
SAUS42 KCHS 130610
MTRNBC
SPECI KNBC 130609Z AUTO 32007KT 3SM BR CLR 07/06 A3010 RMK AO2
T00670056





000
SAUS42 KCHS 130557
MTRNBC
METAR KNBC 130556Z AUTO 32005KT 1 3/4SM BR CLR 04/03 A3008 RMK AO2
VIS 3/4V5 SLP187 T00440033 10133 20044 51009





000
SAUS42 KCHS 130557
MTRNBC
METAR KNBC 130556Z AUTO 32005KT 1 3/4SM BR CLR 04/03 A3008 RMK AO2
VIS 3/4V5 SLP187 T00440033 10133 20044 51009





000
SAUS42 KCHS 130536
MTRNBC
SPECI KNBC 130535Z AUTO 00000KT 4SM BR FEW007 05/04 A3008 RMK AO2
T00500044





000
SAUS42 KCHS 130528
MTRNBC
SPECI KNBC 130526Z AUTO 25003KT 2SM BR FEW006 05/04 A3008 RMK AO2
T00500044





000
SAUS42 KCHS 130521
MTRNBC
SPECI KNBC 130519Z AUTO 24004KT 1 1/4SM BR SCT006 06/05 A3008 RMK
AO2 T00560050





000
SAUS42 KCHS 130514
MTRNBC
SPECI KNBC 130512Z AUTO 23004KT 3/4SM BR VV007 06/05 A3008 RMK AO2
T00560050





000
SAUS42 KCHS 130502
MTRNBC
SPECI KNBC 130500Z AUTO 24005KT 1SM BR VV006 05/04 A3007 RMK AO2
T00500044





000
SAUS42 KCHS 130502
MTRNBC
SPECI KNBC 130500Z AUTO 24005KT 1SM BR VV006 05/04 A3007 RMK AO2
T00500044





000
SAUS42 KCHS 130457
MTRNBC
METAR KNBC 130456Z AUTO 24005KT 1/2SM FG VV006 05/04 A3007 RMK AO2
SLP184 T00500039 401670044





000
SAUS42 KCHS 130457
MTRNBC
METAR KNBC 130456Z AUTO 24005KT 1/2SM FG VV006 05/04 A3007 RMK AO2
SLP184 T00500039 401670044





000
SAUS42 KCHS 130451
MTRNBC
SPECI KNBC 130450Z AUTO 23003KT 1/2SM FG VV007 04/04 A3007 RMK AO2





000
SAUS42 KCHS 130448
MTRNBC
SPECI KNBC 130447Z AUTO 00000KT 3/4SM BR VV010 04/04 A3007 RMK AO2
T00440039





000
SAUS42 KCHS 130447
MTRNBC
SPECI KNBC 130445Z AUTO 00000KT 1SM BR CLR 05/04 A3008 RMK AO2
T00500044





000
SAUS42 KCHS 130447
MTRNBC
SPECI KNBC 130445Z AUTO 00000KT 1SM BR CLR 05/04 A3008 RMK AO2
T00500044





000
SAUS42 KCHS 130444
MTRNBC
SPECI KNBC 130443Z AUTO 00000KT 1 3/4SM BR CLR 06/05 A3007 RMK AO2
T00560050





000
SAUS42 KCHS 130429
MTRNBC
SPECI KNBC 130427Z AUTO 00000KT 4SM BR CLR 07/06 A3007 RMK AO2
T00720061





000
SAUS42 KCHS 130407
MTRNBC
SPECI KNBC 130406Z AUTO 32003KT 2SM BR CLR 07/06 A3007 RMK AO2
T00670056





000
SAUS42 KCHS 130357
MTRNBC
METAR KNBC 130356Z AUTO 35003KT 1 1/4SM BR CLR 05/04 A3007 RMK AO2
SLP184 T00500044





000
SAUS42 KCHS 130356
MTRNBC
SPECI KNBC 130354Z AUTO 34004KT 1 1/2SM BR CLR 05/04 A3007 RMK AO2





000
SAUS42 KCHS 130317
MTRNBC
SPECI KNBC 130316Z AUTO 00000KT 4SM BR CLR 07/07 A3006 RMK AO2
T00720067





000
SAUS42 KCHS 130317
MTRNBC
SPECI KNBC 130316Z AUTO 00000KT 4SM BR CLR 07/07 A3006 RMK AO2
T00720067





000
SAUS42 KCHS 130308
MTRNBC
SPECI KNBC 130306Z AUTO 00000KT 1 3/4SM BR FEW015 07/07 A3006 RMK
AO2 T00720067





000
SAUS42 KCHS 130258
MTRNBC
METAR KNBC 130256Z AUTO 00000KT 5SM BR FEW011 08/07 A3006 RMK AO2
SLP179 T00780072 53004





000
SAUS42 KCHS 130250
MTRNBC
SPECI KNBC 130249Z AUTO 00000KT 3SM BR FEW011 08/07 A3006 RMK AO2
T00780072





000
SAUS42 KCHS 130248
MTRNBC
SPECI KNBC 130247Z AUTO 00000KT 1 3/4SM BR FEW011 08/07 A3006 RMK
AO2 T00780072





000
SAUS42 KCHS 130248
MTRNBC
SPECI KNBC 130247Z AUTO 00000KT 1 3/4SM BR FEW011 08/07 A3006 RMK
AO2 T00780072





000
SAUS42 KCHS 130246
MTRNBC
SPECI KNBC 130245Z AUTO 00000KT 1SM BR VV012 08/07 A3006 RMK AO2
T00780072





000
SAUS42 KCHS 130246
MTRNBC
SPECI KNBC 130245Z AUTO 00000KT 1SM BR VV012 08/07 A3006 RMK AO2
T00780072





000
SAUS42 KCHS 130241
MTRNBC
SPECI KNBC 130240Z AUTO 00000KT 1/2SM FG VV012 08/07 A3006 RMK AO2
T00780067





000
SAUS42 KCHS 130241
MTRNBC
SPECI KNBC 130240Z AUTO 00000KT 1/2SM FG VV012 08/07 A3006 RMK AO2
T00780067





000
SAUS42 KCHS 130231
MTRNBC
SPECI KNBC 130230Z AUTO 00000KT 1/2SM FG VV008 07/06 A3005 RMK AO2
T00670061





000
SAUS42 KCHS 130228
MTRNBC
SPECI KNBC 130227Z AUTO 00000KT 1 1/4SM BR FEW006 07/07 A3005 RMK
AO2 T00720072





000
SAUS42 KCHS 130157
MTRNBC
METAR KNBC 130156Z AUTO 26003KT 8SM CLR 09/08 A3005 RMK AO2 SLP176
T00890078





000
SAUS42 KCHS 130057
MTRNBC
METAR KNBC 130056Z AUTO 00000KT 10SM CLR 10/08 A3005 RMK AO2 SLP176
T01000083





000
SAUS42 KCHS 130057
MTRNBC
METAR KNBC 130056Z AUTO 00000KT 10SM CLR 10/08 A3005 RMK AO2 SLP176
T01000083





000
SAUS42 KCHS 122357
MTRNBC
METAR KNBC 122356Z AUTO 34006KT 10SM FEW041 13/10 A3005 RMK AO2
SLP175 T01330100 10167 20133 53009





000
SAUS42 KCHS 122357
MTRNBC
METAR KNBC 122356Z AUTO 34006KT 10SM FEW041 13/10 A3005 RMK AO2
SLP175 T01330100 10167 20133 53009





000
SAUS42 KCHS 122257
MTRNBC
METAR KNBC 122256Z AUTO 31003KT 10SM CLR 16/11 A3002 RMK AO2 SLP167
T01560111





000
SAUS42 KCHS 122257
MTRNBC
METAR KNBC 122256Z AUTO 31003KT 10SM CLR 16/11 A3002 RMK AO2 SLP167
T01560111





000
SAUS42 KCHS 122157
MTRNBC
METAR KNBC 122156Z 30006KT 10SM CLR 17/11 A3002 RMK AO2 SLP165
T01670111





000
SAUS42 KCHS 122057
MTRNBC
METAR KNBC 122056Z 33008KT 10SM BKN033 BKN043 OVC050 16/11 A3002 RMK
AO2 SLP165 T01610106 55012





000
SAUS42 KCHS 121957
MTRNBC
METAR KNBC 121956Z 29009KT 10SM SCT036 BKN065 BKN110 17/11 A3002 RMK
AO2 SLP165 T01670111





000
SAUS42 KCHS 121858
MTRNBC
METAR KNBC 121856Z 33008KT 10SM FEW025 BKN033 BKN044 16/11 A3003 RMK
AO2 SLP170 T01560111





000
SAUS42 KCHS 121757
MTRNBC
METAR KNBC 121756Z VRB03KT 10SM FEW022 SCT033 OVC042 14/11 A3005 RMK
AO2 SLP177 60000 T01440111 10144 20078 58020





000
SAUS42 KCHS 121757
MTRNBC
METAR KNBC 121756Z VRB03KT 10SM FEW022 SCT033 OVC042 14/11 A3005 RMK
AO2 SLP177 60000 T01440111 10144 20078 58020





000
SAUS42 KCHS 121747
MTRNBC
SPECI KNBC 121746Z 00000KT 10SM FEW018 BKN035 OVC044 14/11 A3006 RMK
AO2 T01440111





000
SAUS42 KCHS 121716
MTRNBC
SPECI KNBC 121715Z 00000KT 10SM OVC015 14/11 A3009 RMK AO2 T01390111





000
SAUS42 KCHS 121716
MTRNBC
SPECI KNBC 121715Z 00000KT 10SM OVC015 14/11 A3009 RMK AO2 T01390111





000
SAUS42 KCHS 121657
MTRNBC
METAR KNBC 121656Z 00000KT 10SM OVC012 13/11 A3009 RMK AO2 DZE24
SLP190 P0000 T01330106





000
SAUS42 KCHS 121657
MTRNBC
METAR KNBC 121656Z 00000KT 10SM OVC012 13/11 A3009 RMK AO2 DZE24
SLP190 P0000 T01330106





000
SAUS42 KCHS 121634
MTRNBC
SPECI KNBC 121633Z 00000KT 10SM OVC013 13/11 A3010 RMK AO2 DZE24
P0000 T01330111





000
SAUS42 KCHS 121612
MTRNBC
SPECI KNBC 121611Z 22005KT 10SM -DZ OVC009 13/11 A3011 RMK AO2 CIG
007V011 P0000 T01330111





000
SAUS42 KCHS 121558
MTRNBC
METAR KNBC 121556Z 00000KT 8SM -DZ OVC010 11/10 A3011 RMK AO2 CIG
004V010 SLP197 P0000 T01110100





000
SAUS42 KCHS 121554
MTRNBC
SPECI KNBC 121552Z 00000KT 7SM -DZ SCT005 OVC010 11/10 A3011 RMK AO2
P0000





000
SAUS42 KCHS 121554
MTRNBC
SPECI KNBC 121552Z 00000KT 7SM -DZ SCT005 OVC010 11/10 A3011 RMK AO2
P0000





000
SAUS42 KCHS 121520
MTRNBC
SPECI KNBC 121518Z 00000KT 4SM -DZ BR BKN005 OVC012 10/09 A3012 RMK
AO2 P0000 T01000089





000
SAUS42 KCHS 121520
MTRNBC
SPECI KNBC 121518Z 00000KT 4SM -DZ BR BKN005 OVC012 10/09 A3012 RMK
AO2 P0000 T01000089





000
SAUS42 KCHS 121509
MTRNBC
SPECI KNBC 121507Z 13003KT 6SM -DZ BR SCT005 BKN010 OVC016 10/09
A3012 RMK AO2 P0000 T01000089





000
SAUS42 KCHS 121509
MTRNBC
SPECI KNBC 121507Z 13003KT 6SM -DZ BR SCT005 BKN010 OVC016 10/09
A3012 RMK AO2 P0000 T01000089





000
SAUS42 KCHS 121457
MTRNBC
METAR KNBC 121456Z 00000KT 3SM -DZ BR BKN005 BKN012 OVC016 10/08
A3013 RMK AO2 DZB1358 SLP203 P0000 60000 T01000083 58007





000
SAUS42 KCHS 121412
MTRNBC
SPECI KNBC 121410Z 00000KT 7SM -DZ BKN007 OVC018 09/08 A3014 RMK AO2
DZB1358 P0000 T00940078





000
SAUS42 KCHS 121358
MTRNBC
METAR KNBC 121356Z 00000KT 7SM FEW007 OVC018 09/08 A3014 RMK AO2
SLP207 T00940078





000
SAUS42 KCHS 121358
MTRNBC
METAR KNBC 121356Z 00000KT 7SM FEW007 OVC018 09/08 A3014 RMK AO2
SLP207 T00940078





000
SAUS42 KCHS 121336
MTRNBC
SPECI KNBC 121335Z 00000KT 10SM BKN014 OVC023 09/07 A3014 RMK AO2
T00890072





000
SAUS42 KCHS 121336
MTRNBC
SPECI KNBC 121335Z 00000KT 10SM BKN014 OVC023 09/07 A3014 RMK AO2
T00890072





000
SAUS42 KCHS 121257
MTRNBC
METAR KNBC 121256Z 00000KT 10SM OVC023 08/07 A3015 RMK AO2 SLP208
T00780067





000
SAUS42 KCHS 121157
MTRNBC
METAR KNBC 121156Z 00000KT 10SM OVC016 07/06 A3015 RMK AO2 SLP210
T00670056 10083 20044 56002





000
SAUS42 KCHS 121157
MTRNBC
METAR KNBC 121156Z 00000KT 10SM OVC016 07/06 A3015 RMK AO2 SLP210
T00670056 10083 20044 56002





000
SAUS42 KCHS 121057
MTRNBC
METAR KNBC 121056Z 00000KT 10SM OVC016 06/04 A3015 RMK AO2 SLP210
FIRST T00560044 $





000
SAUS42 KCHS 121057
MTRNBC
METAR KNBC 121056Z 00000KT 10SM OVC016 06/04 A3015 RMK AO2 SLP210
FIRST T00560044 $





000
SAUS42 KCHS 121046
MTRNBC
SPECI KNBC 121044Z 00000KT 8SM BKN016 05/04 A3015 RMK AO2 FIRST
T00500039 $





000
SAUS42 KCHS 121024
MTRNBC
SPECI KNBC 121023Z 00000KT 10SM FEW017 SCT050 04/03 A3015 RMK AO2
FIRST T00440033 $





000
SAUS42 KCHS 120957
MTRNBC
METAR KNBC 120956Z AUTO 00000KT 10SM CLR 06/04 A3015 RMK AO2 SLP209
T00560039 $





000
SAUS42 KCHS 120857
MTRNBC
METAR KNBC 120856Z AUTO 00000KT 10SM CLR 06/04 A3016 RMK AO2 SLP212
T00610044 56011 $





000
SAUS42 KCHS 120757
MTRNBC
METAR KNBC 120756Z AUTO 09003KT 10SM CLR 07/05 A3017 RMK AO2 SLP215
T00720050 $





000
SAUS42 KCHS 120757
MTRNBC
METAR KNBC 120756Z AUTO 09003KT 10SM CLR 07/05 A3017 RMK AO2 SLP215
T00720050 $





000
SAUS42 KCHS 120657
MTRNBC
METAR KNBC 120656Z AUTO 00000KT 10SM FEW075 08/05 A3018 RMK AO2
SLP219 T00780050 $





000
SAUS42 KCHS 120657
MTRNBC
METAR KNBC 120656Z AUTO 00000KT 10SM FEW075 08/05 A3018 RMK AO2
SLP219 T00780050 $





000
SAUS42 KCHS 120557
MTRNBC
METAR KNBC 120556Z AUTO 04003KT 10SM OVC070 08/05 A3019 RMK AO2
SLP224 T00780050 10078 20044 58006 $





000
SAUS42 KCHS 120557
MTRNBC
METAR KNBC 120556Z AUTO 04003KT 10SM OVC070 08/05 A3019 RMK AO2
SLP224 T00780050 10078 20044 58006 $





000
SAUS42 KCHS 120457
MTRNBC
METAR KNBC 120456Z AUTO 00000KT 10SM BKN070 06/04 A3021 RMK AO2
SLP229 T00610039 401281022 $





000
SAUS42 KCHS 120457
MTRNBC
METAR KNBC 120456Z AUTO 00000KT 10SM BKN070 06/04 A3021 RMK AO2
SLP229 T00610039 401281022 $





000
SAUS42 KCHS 120357
MTRNBC
METAR KNBC 120356Z 00000KT 10SM OVC065 07/05 A3021 RMK AO2 SLP230
T00720050 $





000
SAUS42 KCHS 120357
MTRNBC
METAR KNBC 120356Z 00000KT 10SM OVC065 07/05 A3021 RMK AO2 SLP230
T00720050 $





000
SAUS42 KCHS 120257
MTRNBC
METAR KNBC 120256Z 00000KT 10SM CLR 06/04 A3021 RMK AO2 SLP230
T00610039 58001 $





000
SAUS42 KCHS 120257
MTRNBC
METAR KNBC 120256Z 00000KT 10SM CLR 06/04 A3021 RMK AO2 SLP230
T00610039 58001 $





000
SAUS42 KCHS 120157
MTRNBC
METAR KNBC 120156Z 00000KT 10SM CLR 05/02 A3022 RMK AO2 SLP233
T00500017 $





000
SAUS42 KCHS 120157
MTRNBC
METAR KNBC 120156Z 00000KT 10SM CLR 05/02 A3022 RMK AO2 SLP233
T00500017 $





000
SAUS42 KCHS 120057
MTRNBC
METAR KNBC 120056Z 00000KT 10SM CLR 06/03 A3022 RMK AO2 SLP235
T00610028 $





000
SAUS42 KCHS 120057
MTRNBC
METAR KNBC 120056Z 00000KT 10SM CLR 06/03 A3022 RMK AO2 SLP235
T00610028 $





000
SAUS42 KCHS 112357
MTRNBC
METAR KNBC 112356Z 00000KT 10SM CLR 07/01 A3021 RMK AO2 SLP231
T00720011 10128 20072 53018 $





000
SAUS42 KCHS 112357
MTRNBC
METAR KNBC 112356Z 00000KT 10SM CLR 07/01 A3021 RMK AO2 SLP231
T00720011 10128 20072 53018 $





000
SAUS42 KCHS 112257
MTRNBC
METAR KNBC 112256Z 16005KT 10SM CLR 09/02 A3019 RMK AO2 SLP222
T00890017 $





000
SAUS42 KCHS 112257
MTRNBC
METAR KNBC 112256Z 16005KT 10SM CLR 09/02 A3019 RMK AO2 SLP222
T00890017 $





000
SAUS42 KCHS 112157
MTRNBC
METAR KNBC 112156Z 14008KT 10SM CLR 11/01 A3017 RMK AO2 SLP217
T01110006 $





000
SAUS42 KCHS 112057
MTRNBC
METAR KNBC 112056Z 17007KT 10SM CLR 12/00 A3016 RMK AO2 SLP213
T01220000 55018 $





000
SAUS42 KCHS 112057
MTRNBC
METAR KNBC 112056Z 17007KT 10SM CLR 12/00 A3016 RMK AO2 SLP213
T01220000 55018 $





000
SAUS42 KCHS 111958
MTRNBC
METAR KNBC 111956Z 16008KT 10SM CLR 12/00 A3015 RMK AO2 SLP211
T01220000 $





    US Dept of Commerce
    National Oceanic and Atmospheric Administration
    National Weather Service
    1325 East West Highway
    Silver Spring, MD 20910
    Page Author: NWS Internet Services Team
Disclaimer
Information Quality
Credits
Glossary
Privacy Policy
Freedom of Information Act (FOIA)
About Us
Career Opportunities